sensor_id;sensor_type;location;lat;lon;timestamp;P1;durP1;ratioP1;P2;durP2;ratioP2
7338;SDS011;33747;49.524;8.390;2022-07-04T00:02:13;2.67;;;0.70;;
7338;SDS011;33747;49.524;8.390;2022-07-04T00:04:38;2.60;;;0.90;;
7338;SDS011;33747;49.524;8.390;2022-07-04T00:07:04;3.65;;;1.17;;
7338;SDS011;33747;49.524;8.390;2022-07-04T00:09:29;2.55;;;0.98;;
7338;SDS011;33747;49.524;8.390;2022-07-04T00:11:54;6.40;;;1.50;;
7338;SDS011;33747;49.524;8.390;2022-07-04T00:14:20;2.53;;;0.98;;
7338;SDS011;33747;49.524;8.390;2022-07-04T00:16:45;5.60;;;1.08;;
7338;SDS011;33747;49.524;8.390;2022-07-04T00:19:11;0.82;;;0.80;;
7338;SDS011;33747;49.524;8.390;2022-07-04T00:21:36;4.32;;;1.23;;
7338;SDS011;33747;49.524;8.390;2022-07-04T00:24:02;3.05;;;1.02;;
7338;SDS011;33747;49.524;8.390;2022-07-04T00:26:27;5.40;;;1.25;;
7338;SDS011;33747;49.524;8.390;2022-07-04T00:28:53;3.55;;;0.98;;
7338;SDS011;33747;49.524;8.390;2022-07-04T00:31:18;8.00;;;1.25;;
7338;SDS011;33747;49.524;8.390;2022-07-04T00:33:44;2.17;;;0.90;;
7338;SDS011;33747;49.524;8.390;2022-07-04T00:36:09;3.53;;;1.20;;
7338;SDS011;33747;49.524;8.390;2022-07-04T00:38:35;3.63;;;1.10;;
7338;SDS011;33747;49.524;8.390;2022-07-04T00:41:00;4.00;;;1.10;;
7338;SDS011;33747;49.524;8.390;2022-07-04T00:43:26;2.83;;;1.00;;
7338;SDS011;33747;49.524;8.390;2022-07-04T00:45:52;4.90;;;1.05;;
7338;SDS011;33747;49.524;8.390;2022-07-04T00:48:18;7.15;;;1.17;;
7338;SDS011;33747;49.524;8.390;2022-07-04T00:50:44;3.53;;;1.65;;
7338;SDS011;33747;49.524;8.390;2022-07-04T00:53:10;0.98;;;0.80;;
7338;SDS011;33747;49.524;8.390;2022-07-04T00:55:36;2.60;;;0.82;;
7338;SDS011;33747;49.524;8.390;2022-07-04T00:58:02;4.13;;;0.90;;
7338;SDS011;33747;49.524;8.390;2022-07-04T01:00:27;3.28;;;1.00;;
7338;SDS011;33747;49.524;8.390;2022-07-04T01:02:53;4.40;;;1.10;;
7338;SDS011;33747;49.524;8.390;2022-07-04T01:05:18;2.40;;;1.00;;
7338;SDS011;33747;49.524;8.390;2022-07-04T01:07:44;3.65;;;0.85;;
7338;SDS011;33747;49.524;8.390;2022-07-04T01:10:09;8.13;;;1.20;;
7338;SDS011;33747;49.524;8.390;2022-07-04T01:12:35;1.60;;;1.00;;
7338;SDS011;33747;49.524;8.390;2022-07-04T01:15:00;3.55;;;1.25;;
7338;SDS011;33747;49.524;8.390;2022-07-04T01:17:26;6.43;;;1.05;;
7338;SDS011;33747;49.524;8.390;2022-07-04T01:19:51;1.77;;;0.98;;
7338;SDS011;33747;49.524;8.390;2022-07-04T01:22:17;16.17;;;1.35;;
7338;SDS011;33747;49.524;8.390;2022-07-04T01:24:44;3.78;;;0.88;;
7338;SDS011;33747;49.524;8.390;2022-07-04T01:27:09;0.80;;;0.80;;
7338;SDS011;33747;49.524;8.390;2022-07-04T01:29:35;2.63;;;1.10;;
7338;SDS011;33747;49.524;8.390;2022-07-04T01:32:07;3.20;;;0.90;;
7338;SDS011;33747;49.524;8.390;2022-07-04T01:34:33;6.30;;;1.27;;
7338;SDS011;33747;49.524;8.390;2022-07-04T01:36:59;7.70;;;1.20;;
7338;SDS011;33747;49.524;8.390;2022-07-04T01:39:25;4.45;;;1.23;;
7338;SDS011;33747;49.524;8.390;2022-07-04T01:41:54;4.70;;;1.75;;
7338;SDS011;33747;49.524;8.390;2022-07-04T01:44:19;4.40;;;1.13;;
7338;SDS011;33747;49.524;8.390;2022-07-04T01:46:45;6.28;;;1.55;;
7338;SDS011;33747;49.524;8.390;2022-07-04T01:49:10;3.58;;;1.30;;
7338;SDS011;33747;49.524;8.390;2022-07-04T01:51:42;2.17;;;1.25;;
7338;SDS011;33747;49.524;8.390;2022-07-04T01:54:08;12.27;;;1.80;;
7338;SDS011;33747;49.524;8.390;2022-07-04T01:56:34;4.55;;;1.20;;
7338;SDS011;33747;49.524;8.390;2022-07-04T01:58:59;5.03;;;1.63;;
7338;SDS011;33747;49.524;8.390;2022-07-04T02:01:26;5.00;;;1.52;;
7338;SDS011;33747;49.524;8.390;2022-07-04T02:03:58;3.55;;;1.40;;
7338;SDS011;33747;49.524;8.390;2022-07-04T02:06:24;3.45;;;1.48;;
7338;SDS011;33747;49.524;8.390;2022-07-04T02:08:50;2.05;;;1.05;;
7338;SDS011;33747;49.524;8.390;2022-07-04T02:11:33;11.85;;;1.30;;
7338;SDS011;33747;49.524;8.390;2022-07-04T02:14:18;1.83;;;0.73;;
7338;SDS011;33747;49.524;8.390;2022-07-04T02:16:44;4.45;;;1.08;;
7338;SDS011;33747;49.524;8.390;2022-07-04T02:19:09;1.60;;;0.95;;
7338;SDS011;33747;49.524;8.390;2022-07-04T02:21:35;1.70;;;0.77;;
7338;SDS011;33747;49.524;8.390;2022-07-04T02:24:00;1.75;;;0.77;;
7338;SDS011;33747;49.524;8.390;2022-07-04T02:26:25;2.17;;;1.08;;
7338;SDS011;33747;49.524;8.390;2022-07-04T02:28:51;3.35;;;0.90;;
7338;SDS011;33747;49.524;8.390;2022-07-04T02:31:17;1.67;;;0.93;;
7338;SDS011;33747;49.524;8.390;2022-07-04T02:33:42;1.25;;;0.90;;
7338;SDS011;33747;49.524;8.390;2022-07-04T02:36:08;6.05;;;1.00;;
7338;SDS011;33747;49.524;8.390;2022-07-04T02:38:33;1.90;;;0.93;;
7338;SDS011;33747;49.524;8.390;2022-07-04T02:40:59;3.83;;;1.20;;
7338;SDS011;33747;49.524;8.390;2022-07-04T02:43:24;2.60;;;0.90;;
7338;SDS011;33747;49.524;8.390;2022-07-04T02:45:50;1.67;;;1.00;;
7338;SDS011;33747;49.524;8.390;2022-07-04T02:48:15;3.00;;;1.23;;
7338;SDS011;33747;49.524;8.390;2022-07-04T02:50:40;3.10;;;1.05;;
7338;SDS011;33747;49.524;8.390;2022-07-04T02:53:06;3.72;;;1.20;;
7338;SDS011;33747;49.524;8.390;2022-07-04T02:55:31;5.68;;;1.30;;
7338;SDS011;33747;49.524;8.390;2022-07-04T02:57:57;2.45;;;0.98;;
7338;SDS011;33747;49.524;8.390;2022-07-04T03:00:22;4.03;;;0.93;;
7338;SDS011;33747;49.524;8.390;2022-07-04T03:02:48;5.40;;;1.08;;
7338;SDS011;33747;49.524;8.390;2022-07-04T03:05:13;1.25;;;0.98;;
7338;SDS011;33747;49.524;8.390;2022-07-04T03:07:39;5.55;;;1.08;;
7338;SDS011;33747;49.524;8.390;2022-07-04T03:10:04;2.22;;;1.42;;
7338;SDS011;33747;49.524;8.390;2022-07-04T03:12:30;3.45;;;1.67;;
7338;SDS011;33747;49.524;8.390;2022-07-04T03:14:55;6.63;;;1.77;;
7338;SDS011;33747;49.524;8.390;2022-07-04T03:17:24;4.97;;;2.17;;
7338;SDS011;33747;49.524;8.390;2022-07-04T03:19:50;5.68;;;1.48;;
7338;SDS011;33747;49.524;8.390;2022-07-04T03:22:15;5.32;;;2.28;;
7338;SDS011;33747;49.524;8.390;2022-07-04T03:24:41;4.15;;;1.70;;
7338;SDS011;33747;49.524;8.390;2022-07-04T03:27:06;3.83;;;1.58;;
7338;SDS011;33747;49.524;8.390;2022-07-04T03:29:32;2.65;;;1.45;;
7338;SDS011;33747;49.524;8.390;2022-07-04T03:31:57;7.85;;;1.77;;
7338;SDS011;33747;49.524;8.390;2022-07-04T03:34:23;6.68;;;2.03;;
7338;SDS011;33747;49.524;8.390;2022-07-04T03:36:48;10.40;;;1.98;;
7338;SDS011;33747;49.524;8.390;2022-07-04T03:39:13;12.18;;;3.33;;
7338;SDS011;33747;49.524;8.390;2022-07-04T03:41:39;8.82;;;3.60;;
7338;SDS011;33747;49.524;8.390;2022-07-04T03:44:04;6.10;;;2.90;;
7338;SDS011;33747;49.524;8.390;2022-07-04T03:46:30;8.57;;;3.30;;
7338;SDS011;33747;49.524;8.390;2022-07-04T03:48:55;9.18;;;3.08;;
7338;SDS011;33747;49.524;8.390;2022-07-04T03:51:21;10.73;;;2.40;;
7338;SDS011;33747;49.524;8.390;2022-07-04T03:53:47;7.00;;;2.50;;
7338;SDS011;33747;49.524;8.390;2022-07-04T03:56:13;1.77;;;1.25;;
7338;SDS011;33747;49.524;8.390;2022-07-04T03:58:39;8.43;;;1.88;;
7338;SDS011;33747;49.524;8.390;2022-07-04T04:01:07;4.97;;;1.90;;
7338;SDS011;33747;49.524;8.390;2022-07-04T04:03:33;2.92;;;1.60;;
7338;SDS011;33747;49.524;8.390;2022-07-04T04:06:17;6.22;;;1.50;;
7338;SDS011;33747;49.524;8.390;2022-07-04T04:08:43;3.10;;;1.15;;
7338;SDS011;33747;49.524;8.390;2022-07-04T04:11:08;2.10;;;0.95;;
7338;SDS011;33747;49.524;8.390;2022-07-04T04:13:33;6.38;;;1.13;;
7338;SDS011;33747;49.524;8.390;2022-07-04T04:15:59;5.60;;;1.48;;
7338;SDS011;33747;49.524;8.390;2022-07-04T04:18:24;6.90;;;1.40;;
7338;SDS011;33747;49.524;8.390;2022-07-04T04:20:50;1.75;;;1.00;;
7338;SDS011;33747;49.524;8.390;2022-07-04T04:23:15;6.65;;;1.30;;
7338;SDS011;33747;49.524;8.390;2022-07-04T04:25:41;7.13;;;1.85;;
7338;SDS011;33747;49.524;8.390;2022-07-04T04:28:06;3.15;;;1.50;;
7338;SDS011;33747;49.524;8.390;2022-07-04T04:30:32;6.53;;;1.50;;
7338;SDS011;33747;49.524;8.390;2022-07-04T04:32:57;2.28;;;1.35;;
7338;SDS011;33747;49.524;8.390;2022-07-04T04:35:22;3.85;;;1.38;;
7338;SDS011;33747;49.524;8.390;2022-07-04T04:37:48;3.95;;;1.40;;
7338;SDS011;33747;49.524;8.390;2022-07-04T04:40:13;6.85;;;1.40;;
7338;SDS011;33747;49.524;8.390;2022-07-04T04:42:39;2.42;;;1.08;;
7338;SDS011;33747;49.524;8.390;2022-07-04T04:45:05;3.95;;;1.30;;
7338;SDS011;33747;49.524;8.390;2022-07-04T04:47:31;3.20;;;1.20;;
7338;SDS011;33747;49.524;8.390;2022-07-04T04:49:56;4.10;;;1.27;;
7338;SDS011;33747;49.524;8.390;2022-07-04T04:52:21;2.78;;;1.35;;
7338;SDS011;33747;49.524;8.390;2022-07-04T04:54:47;4.20;;;1.30;;
7338;SDS011;33747;49.524;8.390;2022-07-04T04:57:12;6.65;;;1.23;;
7338;SDS011;33747;49.524;8.390;2022-07-04T04:59:38;7.00;;;1.40;;
7338;SDS011;33747;49.524;8.390;2022-07-04T05:02:03;1.13;;;0.95;;
7338;SDS011;33747;49.524;8.390;2022-07-04T05:04:29;3.28;;;1.10;;
7338;SDS011;33747;49.524;8.390;2022-07-04T05:06:54;4.80;;;1.25;;
7338;SDS011;33747;49.524;8.390;2022-07-04T05:09:20;6.60;;;1.05;;
7338;SDS011;33747;49.524;8.390;2022-07-04T05:11:46;4.22;;;1.38;;
7338;SDS011;33747;49.524;8.390;2022-07-04T05:14:12;3.88;;;0.90;;
7338;SDS011;33747;49.524;8.390;2022-07-04T05:16:37;3.38;;;1.17;;
7338;SDS011;33747;49.524;8.390;2022-07-04T05:19:03;9.63;;;1.88;;
7338;SDS011;33747;49.524;8.390;2022-07-04T05:21:28;2.25;;;0.88;;
7338;SDS011;33747;49.524;8.390;2022-07-04T05:23:54;6.00;;;1.15;;
7338;SDS011;33747;49.524;8.390;2022-07-04T05:26:20;1.95;;;0.95;;
7338;SDS011;33747;49.524;8.390;2022-07-04T05:28:45;1.90;;;1.13;;
7338;SDS011;33747;49.524;8.390;2022-07-04T05:31:11;5.05;;;1.23;;
7338;SDS011;33747;49.524;8.390;2022-07-04T05:33:36;2.40;;;1.00;;
7338;SDS011;33747;49.524;8.390;2022-07-04T05:36:02;5.38;;;1.65;;
7338;SDS011;33747;49.524;8.390;2022-07-04T05:38:27;5.15;;;1.10;;
7338;SDS011;33747;49.524;8.390;2022-07-04T05:40:53;7.60;;;1.40;;
7338;SDS011;33747;49.524;8.390;2022-07-04T05:43:18;4.88;;;1.25;;
7338;SDS011;33747;49.524;8.390;2022-07-04T05:45:46;7.78;;;1.20;;
7338;SDS011;33747;49.524;8.390;2022-07-04T05:48:13;6.20;;;1.13;;
7338;SDS011;33747;49.524;8.390;2022-07-04T05:50:38;2.35;;;0.98;;
7338;SDS011;33747;49.524;8.390;2022-07-04T05:53:04;5.60;;;0.93;;
7338;SDS011;33747;49.524;8.390;2022-07-04T05:55:29;4.13;;;1.17;;
7338;SDS011;33747;49.524;8.390;2022-07-04T05:57:55;3.80;;;0.80;;
7338;SDS011;33747;49.524;8.390;2022-07-04T06:00:20;2.78;;;1.10;;
7338;SDS011;33747;49.524;8.390;2022-07-04T06:02:46;4.85;;;1.33;;
7338;SDS011;33747;49.524;8.390;2022-07-04T06:05:11;1.75;;;0.93;;
7338;SDS011;33747;49.524;8.390;2022-07-04T06:07:37;3.53;;;1.13;;
7338;SDS011;33747;49.524;8.390;2022-07-04T06:10:03;3.05;;;1.13;;
7338;SDS011;33747;49.524;8.390;2022-07-04T06:12:29;6.90;;;1.08;;
7338;SDS011;33747;49.524;8.390;2022-07-04T06:14:55;3.33;;;1.17;;
7338;SDS011;33747;49.524;8.390;2022-07-04T06:17:20;6.90;;;1.33;;
7338;SDS011;33747;49.524;8.390;2022-07-04T06:19:46;2.03;;;1.20;;
7338;SDS011;33747;49.524;8.390;2022-07-04T06:22:11;6.65;;;1.02;;
7338;SDS011;33747;49.524;8.390;2022-07-04T06:24:37;2.88;;;1.30;;
7338;SDS011;33747;49.524;8.390;2022-07-04T06:27:03;5.68;;;1.05;;
7338;SDS011;33747;49.524;8.390;2022-07-04T06:29:28;2.58;;;1.05;;
7338;SDS011;33747;49.524;8.390;2022-07-04T06:31:54;3.55;;;1.13;;
7338;SDS011;33747;49.524;8.390;2022-07-04T06:34:19;3.05;;;1.15;;
7338;SDS011;33747;49.524;8.390;2022-07-04T06:37:03;7.50;;;1.20;;
7338;SDS011;33747;49.524;8.390;2022-07-04T06:39:29;2.75;;;1.13;;
7338;SDS011;33747;49.524;8.390;2022-07-04T06:41:54;5.30;;;1.33;;
7338;SDS011;33747;49.524;8.390;2022-07-04T06:44:20;2.53;;;1.08;;
7338;SDS011;33747;49.524;8.390;2022-07-04T06:46:45;3.88;;;1.15;;
7338;SDS011;33747;49.524;8.390;2022-07-04T06:49:11;4.50;;;1.40;;
7338;SDS011;33747;49.524;8.390;2022-07-04T06:51:36;3.17;;;1.20;;
7338;SDS011;33747;49.524;8.390;2022-07-04T06:54:02;3.55;;;1.33;;
7338;SDS011;33747;49.524;8.390;2022-07-04T06:56:27;2.85;;;1.10;;
7338;SDS011;33747;49.524;8.390;2022-07-04T06:58:53;2.35;;;1.17;;
7338;SDS011;33747;49.524;8.390;2022-07-04T07:01:18;3.20;;;1.23;;
7338;SDS011;33747;49.524;8.390;2022-07-04T07:03:44;4.50;;;1.73;;
7338;SDS011;33747;49.524;8.390;2022-07-04T07:06:09;4.45;;;1.27;;
7338;SDS011;33747;49.524;8.390;2022-07-04T07:08:35;2.40;;;1.48;;
7338;SDS011;33747;49.524;8.390;2022-07-04T07:11:00;3.80;;;1.35;;
7338;SDS011;33747;49.524;8.390;2022-07-04T07:13:42;2.42;;;1.08;;
7338;SDS011;33747;49.524;8.390;2022-07-04T07:16:08;3.90;;;1.45;;
7338;SDS011;33747;49.524;8.390;2022-07-04T07:18:34;4.95;;;0.95;;
7338;SDS011;33747;49.524;8.390;2022-07-04T07:21:00;2.40;;;1.08;;
7338;SDS011;33747;49.524;8.390;2022-07-04T07:23:25;4.25;;;1.10;;
7338;SDS011;33747;49.524;8.390;2022-07-04T07:25:51;9.68;;;1.08;;
7338;SDS011;33747;49.524;8.390;2022-07-04T07:28:16;3.60;;;0.85;;
7338;SDS011;33747;49.524;8.390;2022-07-04T07:30:43;4.10;;;1.20;;
7338;SDS011;33747;49.524;8.390;2022-07-04T07:33:09;6.20;;;0.90;;
7338;SDS011;33747;49.524;8.390;2022-07-04T07:35:35;3.38;;;0.90;;
7338;SDS011;33747;49.524;8.390;2022-07-04T07:38:00;7.07;;;1.52;;
7338;SDS011;33747;49.524;8.390;2022-07-04T07:40:26;7.45;;;1.30;;
7338;SDS011;33747;49.524;8.390;2022-07-04T07:42:51;12.75;;;1.38;;
7338;SDS011;33747;49.524;8.390;2022-07-04T07:45:19;2.95;;;1.10;;
7338;SDS011;33747;49.524;8.390;2022-07-04T07:47:45;2.10;;;0.90;;
7338;SDS011;33747;49.524;8.390;2022-07-04T07:50:10;2.97;;;1.50;;
7338;SDS011;33747;49.524;8.390;2022-07-04T07:52:36;4.38;;;1.27;;
7338;SDS011;33747;49.524;8.390;2022-07-04T07:55:01;4.40;;;1.10;;
7338;SDS011;33747;49.524;8.390;2022-07-04T07:57:27;1.67;;;0.93;;
7338;SDS011;33747;49.524;8.390;2022-07-04T07:59:52;7.47;;;1.50;;
7338;SDS011;33747;49.524;8.390;2022-07-04T08:02:18;5.32;;;1.40;;
7338;SDS011;33747;49.524;8.390;2022-07-04T08:04:43;2.75;;;1.20;;
7338;SDS011;33747;49.524;8.390;2022-07-04T08:07:09;4.65;;;1.13;;
7338;SDS011;33747;49.524;8.390;2022-07-04T08:09:37;4.72;;;1.33;;
7338;SDS011;33747;49.524;8.390;2022-07-04T08:12:03;3.42;;;1.35;;
7338;SDS011;33747;49.524;8.390;2022-07-04T08:14:30;3.47;;;1.40;;
7338;SDS011;33747;49.524;8.390;2022-07-04T08:16:57;3.75;;;1.60;;
7338;SDS011;33747;49.524;8.390;2022-07-04T08:19:26;4.32;;;1.27;;
7338;SDS011;33747;49.524;8.390;2022-07-04T08:21:51;6.53;;;1.50;;
7338;SDS011;33747;49.524;8.390;2022-07-04T08:24:17;9.82;;;1.23;;
7338;SDS011;33747;49.524;8.390;2022-07-04T08:26:43;5.28;;;1.13;;
7338;SDS011;33747;49.524;8.390;2022-07-04T08:29:08;7.05;;;1.55;;
7338;SDS011;33747;49.524;8.390;2022-07-04T08:31:34;4.32;;;2.53;;
7338;SDS011;33747;49.524;8.390;2022-07-04T08:33:59;3.30;;;1.50;;
7338;SDS011;33747;49.524;8.390;2022-07-04T08:36:25;5.80;;;1.15;;
7338;SDS011;33747;49.524;8.390;2022-07-04T08:38:50;5.57;;;2.00;;
7338;SDS011;33747;49.524;8.390;2022-07-04T08:41:16;2.63;;;1.60;;
7338;SDS011;33747;49.524;8.390;2022-07-04T08:43:42;3.67;;;1.33;;
7338;SDS011;33747;49.524;8.390;2022-07-04T08:46:10;4.95;;;1.55;;
7338;SDS011;33747;49.524;8.390;2022-07-04T08:48:37;7.63;;;1.10;;
7338;SDS011;33747;49.524;8.390;2022-07-04T08:51:16;6.32;;;1.33;;
7338;SDS011;33747;49.524;8.390;2022-07-04T08:53:44;3.70;;;1.25;;
7338;SDS011;33747;49.524;8.390;2022-07-04T08:56:16;2.15;;;1.10;;
7338;SDS011;33747;49.524;8.390;2022-07-04T08:59:02;5.95;;;1.27;;
7338;SDS011;33747;49.524;8.390;2022-07-04T09:01:27;6.20;;;1.30;;
7338;SDS011;33747;49.524;8.390;2022-07-04T09:03:53;2.97;;;1.20;;
7338;SDS011;33747;49.524;8.390;2022-07-04T09:06:19;2.33;;;0.80;;
7338;SDS011;33747;49.524;8.390;2022-07-04T09:08:45;4.05;;;1.10;;
7338;SDS011;33747;49.524;8.390;2022-07-04T09:11:10;5.97;;;1.48;;
7338;SDS011;33747;49.524;8.390;2022-07-04T09:13:37;1.45;;;1.00;;
7338;SDS011;33747;49.524;8.390;2022-07-04T09:16:03;4.13;;;1.23;;
7338;SDS011;33747;49.524;8.390;2022-07-04T09:18:32;4.47;;;1.30;;
7338;SDS011;33747;49.524;8.390;2022-07-04T09:21:06;5.28;;;1.15;;
7338;SDS011;33747;49.524;8.390;2022-07-04T09:26:18;11.13;;;1.52;;
7338;SDS011;33747;49.524;8.390;2022-07-04T09:28:50;4.45;;;0.82;;
7338;SDS011;33747;49.524;8.390;2022-07-04T09:31:20;5.65;;;1.23;;
7338;SDS011;33747;49.524;8.390;2022-07-04T09:33:48;4.20;;;1.27;;
7338;SDS011;33747;49.524;8.390;2022-07-04T09:36:16;5.95;;;1.42;;
7338;SDS011;33747;49.524;8.390;2022-07-04T09:38:44;1.67;;;0.85;;
7338;SDS011;33747;49.524;8.390;2022-07-04T09:41:09;3.28;;;1.00;;
7338;SDS011;33747;49.524;8.390;2022-07-04T09:43:59;5.97;;;1.35;;
7338;SDS011;33747;49.524;8.390;2022-07-04T09:46:25;2.65;;;1.00;;
7338;SDS011;33747;49.524;8.390;2022-07-04T09:48:51;6.68;;;1.10;;
7338;SDS011;33747;49.524;8.390;2022-07-04T09:56:38;7.25;;;0.90;;
7338;SDS011;33747;49.524;8.390;2022-07-04T09:59:07;2.47;;;0.90;;
7338;SDS011;33747;49.524;8.390;2022-07-04T10:01:33;6.60;;;1.02;;
7338;SDS011;33747;49.524;8.390;2022-07-04T10:03:58;4.70;;;1.30;;
7338;SDS011;33747;49.524;8.390;2022-07-04T10:06:24;5.70;;;0.98;;
7338;SDS011;33747;49.524;8.390;2022-07-04T10:08:50;3.13;;;0.85;;
7338;SDS011;33747;49.524;8.390;2022-07-04T10:11:16;4.38;;;1.00;;
7338;SDS011;33747;49.524;8.390;2022-07-04T10:13:43;3.15;;;0.95;;
7338;SDS011;33747;49.524;8.390;2022-07-04T10:16:09;3.38;;;1.20;;
7338;SDS011;33747;49.524;8.390;2022-07-04T10:18:34;1.83;;;0.82;;
7338;SDS011;33747;49.524;8.390;2022-07-04T10:21:00;2.75;;;0.90;;
7338;SDS011;33747;49.524;8.390;2022-07-04T10:23:26;3.85;;;0.80;;
7338;SDS011;33747;49.524;8.390;2022-07-04T10:25:56;3.35;;;0.90;;
7338;SDS011;33747;49.524;8.390;2022-07-04T10:28:22;3.00;;;1.15;;
7338;SDS011;33747;49.524;8.390;2022-07-04T10:30:52;4.38;;;0.60;;
7338;SDS011;33747;49.524;8.390;2022-07-04T10:33:26;7.43;;;1.42;;
7338;SDS011;33747;49.524;8.390;2022-07-04T10:38:31;4.00;;;1.05;;
7338;SDS011;33747;49.524;8.390;2022-07-04T10:41:07;3.00;;;0.90;;
7338;SDS011;33747;49.524;8.390;2022-07-04T10:54:57;5.03;;;1.45;;
7338;SDS011;33747;49.524;8.390;2022-07-04T10:59:37;3.97;;;0.80;;
7338;SDS011;33747;49.524;8.390;2022-07-04T11:07:14;4.97;;;1.27;;
7338;SDS011;33747;49.524;8.390;2022-07-04T11:09:40;3.00;;;0.90;;
7338;SDS011;33747;49.524;8.390;2022-07-04T11:12:06;3.15;;;0.95;;
7338;SDS011;33747;49.524;8.390;2022-07-04T11:17:14;3.40;;;0.90;;
7338;SDS011;33747;49.524;8.390;2022-07-04T11:19:40;2.50;;;1.23;;
7338;SDS011;33747;49.524;8.390;2022-07-04T11:22:07;11.80;;;1.15;;
7338;SDS011;33747;49.524;8.390;2022-07-04T11:24:34;3.88;;;0.85;;
7338;SDS011;33747;49.524;8.390;2022-07-04T11:27:00;2.40;;;0.80;;
7338;SDS011;33747;49.524;8.390;2022-07-04T11:29:26;1.27;;;0.85;;
7338;SDS011;33747;49.524;8.390;2022-07-04T11:31:53;3.17;;;0.80;;
7338;SDS011;33747;49.524;8.390;2022-07-04T11:34:19;3.28;;;1.05;;
7338;SDS011;33747;49.524;8.390;2022-07-04T11:36:46;2.63;;;0.90;;
7338;SDS011;33747;49.524;8.390;2022-07-04T11:39:13;1.38;;;0.60;;
7338;SDS011;33747;49.524;8.390;2022-07-04T11:41:47;4.60;;;0.95;;
7338;SDS011;33747;49.524;8.390;2022-07-04T11:44:39;6.45;;;1.05;;
7338;SDS011;33747;49.524;8.390;2022-07-04T11:47:25;2.72;;;0.88;;
7338;SDS011;33747;49.524;8.390;2022-07-04T11:49:58;2.33;;;0.70;;
7338;SDS011;33747;49.524;8.390;2022-07-04T11:52:28;2.50;;;0.80;;
7338;SDS011;33747;49.524;8.390;2022-07-04T11:55:06;9.52;;;0.88;;
7338;SDS011;33747;49.524;8.390;2022-07-04T11:57:36;2.33;;;0.80;;
7338;SDS011;33747;49.524;8.390;2022-07-04T12:00:04;2.17;;;0.60;;
7338;SDS011;33747;49.524;8.390;2022-07-04T12:02:34;5.75;;;0.70;;
7338;SDS011;33747;49.524;8.390;2022-07-04T12:05:01;1.70;;;0.70;;
7338;SDS011;33747;49.524;8.390;2022-07-04T12:07:29;2.90;;;0.60;;
7338;SDS011;33747;49.524;8.390;2022-07-04T12:09:57;1.50;;;0.63;;
7338;SDS011;33747;49.524;8.390;2022-07-04T12:12:35;5.45;;;0.70;;
7338;SDS011;33747;49.524;8.390;2022-07-04T12:15:02;2.67;;;1.05;;
7338;SDS011;33747;49.524;8.390;2022-07-04T12:17:33;2.45;;;0.70;;
7338;SDS011;33747;49.524;8.390;2022-07-04T12:20:00;5.88;;;0.70;;
7338;SDS011;33747;49.524;8.390;2022-07-04T12:22:38;1.55;;;0.60;;
7338;SDS011;33747;49.524;8.390;2022-07-04T12:25:19;8.75;;;0.80;;
7338;SDS011;33747;49.524;8.390;2022-07-04T12:27:52;1.52;;;0.75;;
7338;SDS011;33747;49.524;8.390;2022-07-04T12:32:51;3.42;;;1.00;;
7338;SDS011;33747;49.524;8.390;2022-07-04T12:38:11;2.30;;;0.47;;
7338;SDS011;33747;49.524;8.390;2022-07-04T12:40:55;3.33;;;0.80;;
7338;SDS011;33747;49.524;8.390;2022-07-04T12:46:04;5.10;;;0.70;;
7338;SDS011;33747;49.524;8.390;2022-07-04T12:48:30;1.17;;;0.52;;
7338;SDS011;33747;49.524;8.390;2022-07-04T12:51:08;3.17;;;0.80;;
7338;SDS011;33747;49.524;8.390;2022-07-04T12:53:43;2.33;;;0.90;;
7338;SDS011;33747;49.524;8.390;2022-07-04T12:56:10;2.47;;;0.90;;
7338;SDS011;33747;49.524;8.390;2022-07-04T12:58:35;2.47;;;0.75;;
7338;SDS011;33747;49.524;8.390;2022-07-04T13:01:02;2.67;;;0.93;;
7338;SDS011;33747;49.524;8.390;2022-07-04T13:03:28;3.20;;;0.98;;
7338;SDS011;33747;49.524;8.390;2022-07-04T13:05:54;1.48;;;0.60;;
7338;SDS011;33747;49.524;8.390;2022-07-04T13:08:22;3.38;;;0.75;;
7338;SDS011;33747;49.524;8.390;2022-07-04T13:10:47;1.80;;;1.00;;
7338;SDS011;33747;49.524;8.390;2022-07-04T13:13:13;4.45;;;0.60;;
7338;SDS011;33747;49.524;8.390;2022-07-04T13:15:38;2.75;;;0.90;;
7338;SDS011;33747;49.524;8.390;2022-07-04T13:18:04;3.70;;;0.70;;
7338;SDS011;33747;49.524;8.390;2022-07-04T13:20:29;1.27;;;0.75;;
7338;SDS011;33747;49.524;8.390;2022-07-04T13:22:54;4.13;;;1.10;;
7338;SDS011;33747;49.524;8.390;2022-07-04T13:25:20;1.95;;;0.70;;
7338;SDS011;33747;49.524;8.390;2022-07-04T13:27:47;1.95;;;0.68;;
7338;SDS011;33747;49.524;8.390;2022-07-04T13:30:12;2.88;;;0.90;;
7338;SDS011;33747;49.524;8.390;2022-07-04T13:32:38;3.65;;;0.73;;
7338;SDS011;33747;49.524;8.390;2022-07-04T13:35:03;5.05;;;0.60;;
7338;SDS011;33747;49.524;8.390;2022-07-04T13:37:29;1.35;;;0.70;;
7338;SDS011;33747;49.524;8.390;2022-07-04T13:39:55;2.45;;;0.82;;
7338;SDS011;33747;49.524;8.390;2022-07-04T13:42:20;1.10;;;0.63;;
7338;SDS011;33747;49.524;8.390;2022-07-04T13:45:18;2.67;;;0.70;;
7338;SDS011;33747;49.524;8.390;2022-07-04T13:47:44;3.40;;;0.85;;
7338;SDS011;33747;49.524;8.390;2022-07-04T13:50:09;4.07;;;0.85;;
7338;SDS011;33747;49.524;8.390;2022-07-04T13:52:35;1.92;;;0.80;;
7338;SDS011;33747;49.524;8.390;2022-07-04T13:55:00;6.07;;;0.90;;
7338;SDS011;33747;49.524;8.390;2022-07-04T13:57:26;4.07;;;0.75;;
7338;SDS011;33747;49.524;8.390;2022-07-04T13:59:51;5.18;;;0.90;;
7338;SDS011;33747;49.524;8.390;2022-07-04T14:02:17;10.25;;;1.05;;
7338;SDS011;33747;49.524;8.390;2022-07-04T14:04:42;4.50;;;1.17;;
7338;SDS011;33747;49.524;8.390;2022-07-04T14:07:08;1.17;;;0.57;;
7338;SDS011;33747;49.524;8.390;2022-07-04T14:09:33;1.67;;;0.80;;
7338;SDS011;33747;49.524;8.390;2022-07-04T14:11:59;8.35;;;0.98;;
7338;SDS011;33747;49.524;8.390;2022-07-04T14:14:24;1.52;;;0.77;;
7338;SDS011;33747;49.524;8.390;2022-07-04T14:16:50;1.67;;;0.73;;
7338;SDS011;33747;49.524;8.390;2022-07-04T14:19:15;2.20;;;0.63;;
7338;SDS011;33747;49.524;8.390;2022-07-04T14:21:40;4.93;;;1.13;;
7338;SDS011;33747;49.524;8.390;2022-07-04T14:24:06;1.58;;;0.75;;
7338;SDS011;33747;49.524;8.390;2022-07-04T14:26:31;4.70;;;0.77;;
7338;SDS011;33747;49.524;8.390;2022-07-04T14:28:57;6.35;;;0.85;;
7338;SDS011;33747;49.524;8.390;2022-07-04T14:31:22;4.85;;;0.77;;
7338;SDS011;33747;49.524;8.390;2022-07-04T14:33:48;4.40;;;0.70;;
7338;SDS011;33747;49.524;8.390;2022-07-04T14:36:13;1.98;;;0.77;;
7338;SDS011;33747;49.524;8.390;2022-07-04T14:38:39;4.88;;;0.77;;
7338;SDS011;33747;49.524;8.390;2022-07-04T14:41:04;4.20;;;0.85;;
7338;SDS011;33747;49.524;8.390;2022-07-04T14:43:36;0.85;;;0.73;;
7338;SDS011;33747;49.524;8.390;2022-07-04T14:46:03;1.50;;;0.73;;
7338;SDS011;33747;49.524;8.390;2022-07-04T14:48:28;3.70;;;0.80;;
7338;SDS011;33747;49.524;8.390;2022-07-04T14:50:53;5.03;;;0.70;;
7338;SDS011;33747;49.524;8.390;2022-07-04T14:53:19;2.10;;;0.90;;
7338;SDS011;33747;49.524;8.390;2022-07-04T14:55:45;3.47;;;0.93;;
7338;SDS011;33747;49.524;8.390;2022-07-04T14:58:11;6.35;;;1.33;;
7338;SDS011;33747;49.524;8.390;2022-07-04T15:00:38;6.20;;;1.33;;
7338;SDS011;33747;49.524;8.390;2022-07-04T15:03:04;3.38;;;0.85;;
7338;SDS011;33747;49.524;8.390;2022-07-04T15:05:29;2.80;;;0.60;;
7338;SDS011;33747;49.524;8.390;2022-07-04T15:07:54;1.80;;;0.55;;
7338;SDS011;33747;49.524;8.390;2022-07-04T15:10:21;2.92;;;0.63;;
7338;SDS011;33747;49.524;8.390;2022-07-04T15:12:47;1.33;;;0.63;;
7338;SDS011;33747;49.524;8.390;2022-07-04T15:15:13;5.95;;;0.90;;
7338;SDS011;33747;49.524;8.390;2022-07-04T15:17:39;3.03;;;0.80;;
7338;SDS011;33747;49.524;8.390;2022-07-04T15:20:04;4.63;;;0.80;;
7338;SDS011;33747;49.524;8.390;2022-07-04T15:22:49;1.48;;;0.80;;
7338;SDS011;33747;49.524;8.390;2022-07-04T15:25:44;1.60;;;0.70;;
7338;SDS011;33747;49.524;8.390;2022-07-04T15:28:09;1.05;;;0.40;;
7338;SDS011;33747;49.524;8.390;2022-07-04T15:30:34;3.10;;;0.60;;
7338;SDS011;33747;49.524;8.390;2022-07-04T15:33:00;0.65;;;0.60;;
7338;SDS011;33747;49.524;8.390;2022-07-04T15:35:25;1.63;;;0.63;;
7338;SDS011;33747;49.524;8.390;2022-07-04T15:37:51;2.42;;;1.00;;
7338;SDS011;33747;49.524;8.390;2022-07-04T15:40:16;2.60;;;0.75;;